sensor_id;sensor_type;location;lat;lon;timestamp;pressure;altitude;pressure_sealevel;temperature;humidity
39769;BME280;38939;47.824;14.642;2023-02-28T00:00:09;97543.25;;;0.24;72.72
39769;BME280;38939;47.824;14.642;2023-02-28T00:01:12;97535.66;;;0.22;72.79
39769;BME280;38939;47.824;14.642;2023-02-28T00:02:15;97541.53;;;0.13;73.57
39769;BME280;38939;47.824;14.642;2023-02-28T00:03:19;97537.69;;;0.07;72.97
39769;BME280;38939;47.824;14.642;2023-02-28T00:04:21;97537.13;;;0.04;73.35
39769;BME280;38939;47.824;14.642;2023-02-28T00:05:23;97542.81;;;0.07;73.07
39769;BME280;38939;47.824;14.642;2023-02-28T00:06:26;97538.84;;;0.14;72.87
39769;BME280;38939;47.824;14.642;2023-02-28T00:07:29;97537.09;;;0.15;72.53
39769;BME280;38939;47.824;14.642;2023-02-28T00:08:31;97539.56;;;0.16;72.94
39769;BME280;38939;47.824;14.642;2023-02-28T00:09:33;97539.66;;;0.15;72.38
39769;BME280;38939;47.824;14.642;2023-02-28T00:10:35;97540.47;;;0.15;72.16
39769;BME280;38939;47.824;14.642;2023-02-28T00:11:37;97544.69;;;0.16;72.27
39769;BME280;38939;47.824;14.642;2023-02-28T00:12:39;97545.72;;;0.14;71.91
39769;BME280;38939;47.824;14.642;2023-02-28T00:13:42;97544.00;;;0.14;72.22
39769;BME280;38939;47.824;14.642;2023-02-28T00:14:45;97545.59;;;0.15;72.00
39769;BME280;38939;47.824;14.642;2023-02-28T00:15:47;97542.13;;;0.16;71.70
39769;BME280;38939;47.824;14.642;2023-02-28T00:16:48;97543.72;;;0.17;71.25
39769;BME280;38939;47.824;14.642;2023-02-28T00:17:51;97543.50;;;0.21;71.38
39769;BME280;38939;47.824;14.642;2023-02-28T00:18:53;97546.75;;;0.23;71.15
39769;BME280;38939;47.824;14.642;2023-02-28T00:19:54;97535.53;;;0.24;70.72
39769;BME280;38939;47.824;14.642;2023-02-28T00:20:57;97546.75;;;0.23;70.89
39769;BME280;38939;47.824;14.642;2023-02-28T00:21:59;97544.91;;;0.13;70.40
39769;BME280;38939;47.824;14.642;2023-02-28T00:23:01;97543.28;;;0.12;70.61
39769;BME280;38939;47.824;14.642;2023-02-28T00:24:03;97544.47;;;0.08;71.00
39769;BME280;38939;47.824;14.642;2023-02-28T00:25:05;97547.38;;;0.04;70.51
39769;BME280;38939;47.824;14.642;2023-02-28T00:26:08;97542.50;;;0.01;70.63
39769;BME280;38939;47.824;14.642;2023-02-28T00:27:10;97545.41;;;-0.04;70.32
39769;BME280;38939;47.824;14.642;2023-02-28T00:28:12;97547.03;;;-0.03;70.31
39769;BME280;38939;47.824;14.642;2023-02-28T00:29:13;97541.00;;;-0.13;70.31
39769;BME280;38939;47.824;14.642;2023-02-28T00:30:17;97532.84;;;-0.18;70.03
39769;BME280;38939;47.824;14.642;2023-02-28T00:31:19;97542.38;;;-0.21;70.08
39769;BME280;38939;47.824;14.642;2023-02-28T00:32:21;97544.41;;;-0.24;69.61
39769;BME280;38939;47.824;14.642;2023-02-28T00:33:23;97540.31;;;-0.27;69.63
39769;BME280;38939;47.824;14.642;2023-02-28T00:34:24;97540.56;;;-0.30;69.88
39769;BME280;38939;47.824;14.642;2023-02-28T00:35:26;97543.59;;;-0.36;69.75
39769;BME280;38939;47.824;14.642;2023-02-28T00:36:28;97537.16;;;-0.42;69.82
39769;BME280;38939;47.824;14.642;2023-02-28T00:37:30;97532.03;;;-0.42;69.69
39769;BME280;38939;47.824;14.642;2023-02-28T00:38:32;97531.94;;;-0.40;69.89
39769;BME280;38939;47.824;14.642;2023-02-28T00:39:34;97538.78;;;-0.41;70.09
39769;BME280;38939;47.824;14.642;2023-02-28T00:40:37;97529.38;;;-0.40;70.20
39769;BME280;38939;47.824;14.642;2023-02-28T00:41:38;97537.50;;;-0.35;69.93
39769;BME280;38939;47.824;14.642;2023-02-28T00:42:40;97527.94;;;-0.33;69.83
39769;BME280;38939;47.824;14.642;2023-02-28T00:43:42;97538.91;;;-0.31;69.64
39769;BME280;38939;47.824;14.642;2023-02-28T00:44:44;97526.78;;;-0.29;70.11
39769;BME280;38939;47.824;14.642;2023-02-28T00:45:46;97527.72;;;-0.30;69.88
39769;BME280;38939;47.824;14.642;2023-02-28T00:46:48;97524.47;;;-0.32;69.54
39769;BME280;38939;47.824;14.642;2023-02-28T00:47:50;97533.78;;;-0.31;69.70
39769;BME280;38939;47.824;14.642;2023-02-28T00:48:52;97520.97;;;-0.31;69.99
39769;BME280;38939;47.824;14.642;2023-02-28T00:49:54;97521.91;;;-0.32;69.28
39769;BME280;38939;47.824;14.642;2023-02-28T00:50:55;97523.53;;;-0.31;69.60
39769;BME280;38939;47.824;14.642;2023-02-28T00:51:57;97518.66;;;-0.34;69.29
39769;BME280;38939;47.824;14.642;2023-02-28T00:52:59;97519.34;;;-0.43;69.04
39769;BME280;38939;47.824;14.642;2023-02-28T00:54:01;97520.06;;;-0.52;69.21
39769;BME280;38939;47.824;14.642;2023-02-28T00:55:03;97529.38;;;-0.63;69.29
39769;BME280;38939;47.824;14.642;2023-02-28T00:56:05;97524.47;;;-0.66;69.72
39769;BME280;38939;47.824;14.642;2023-02-28T00:57:07;97524.94;;;-0.72;69.59
39769;BME280;38939;47.824;14.642;2023-02-28T00:58:09;97524.69;;;-0.69;69.88
39769;BME280;38939;47.824;14.642;2023-02-28T00:59:11;97524.47;;;-0.66;69.71
39769;BME280;38939;47.824;14.642;2023-02-28T01:00:13;97521.69;;;-0.63;69.60
39769;BME280;38939;47.824;14.642;2023-02-28T01:01:15;97518.44;;;-0.65;69.49
39769;BME280;38939;47.824;14.642;2023-02-28T01:02:17;97515.13;;;-0.67;69.26
39769;BME280;38939;47.824;14.642;2023-02-28T01:03:19;97525.28;;;-0.65;69.49
39769;BME280;38939;47.824;14.642;2023-02-28T01:04:21;97515.13;;;-0.67;69.27
39769;BME280;38939;47.824;14.642;2023-02-28T01:05:23;97517.94;;;-0.70;69.01
39769;BME280;38939;47.824;14.642;2023-02-28T01:06:25;97521.22;;;-0.68;68.89
39769;BME280;38939;47.824;14.642;2023-02-28T01:07:27;97521.66;;;-0.74;69.00
39769;BME280;38939;47.824;14.642;2023-02-28T01:08:29;97521.19;;;-0.79;69.40
39769;BME280;38939;47.824;14.642;2023-02-28T01:09:31;97517.00;;;-0.80;68.97
39769;BME280;38939;47.824;14.642;2023-02-28T01:10:33;97517.94;;;-0.81;69.28
39769;BME280;38939;47.824;14.642;2023-02-28T01:11:35;97519.69;;;-0.82;69.30
39769;BME280;38939;47.824;14.642;2023-02-28T01:12:37;97520.50;;;-0.81;69.24
39769;BME280;38939;47.824;14.642;2023-02-28T01:13:39;97521.31;;;-0.81;70.04
39769;BME280;38939;47.824;14.642;2023-02-28T01:14:41;97519.47;;;-0.78;69.86
39769;BME280;38939;47.824;14.642;2023-02-28T01:15:46;97515.13;;;-0.89;69.41
39769;BME280;38939;47.824;14.642;2023-02-28T01:16:50;97516.88;;;-0.90;69.43
39769;BME280;38939;47.824;14.642;2023-02-28T01:17:53;97508.97;;;-0.87;69.70
39769;BME280;38939;47.824;14.642;2023-02-28T01:18:54;97507.94;;;-0.84;69.30
39769;BME280;38939;47.824;14.642;2023-02-28T01:19:56;97506.97;;;-0.83;69.40
39769;BME280;38939;47.824;14.642;2023-02-28T01:21:02;97503.59;;;-0.84;69.24
39769;BME280;38939;47.824;14.642;2023-02-28T01:22:04;97502.69;;;-0.83;69.09
39769;BME280;38939;47.824;14.642;2023-02-28T01:23:07;97508.63;;;-0.82;69.03
39769;BME280;38939;47.824;14.642;2023-02-28T01:24:09;97511.06;;;-0.81;69.10
39769;BME280;38939;47.824;14.642;2023-02-28T01:25:11;97500.84;;;-0.81;69.16
39769;BME280;38939;47.824;14.642;2023-02-28T01:26:14;97505.81;;;-0.79;69.20
39769;BME280;38939;47.824;14.642;2023-02-28T01:27:16;97505.13;;;-0.81;69.33
39769;BME280;38939;47.824;14.642;2023-02-28T01:28:18;97503.50;;;-0.82;69.26
39769;BME280;38939;47.824;14.642;2023-02-28T01:29:20;97499.44;;;-0.85;69.09
39769;BME280;38939;47.824;14.642;2023-02-28T01:30:21;97501.63;;;-0.91;69.10
39769;BME280;38939;47.824;14.642;2023-02-28T01:31:23;97497.44;;;-0.92;69.03
39769;BME280;38939;47.824;14.642;2023-02-28T01:32:26;97508.38;;;-0.90;68.89
39769;BME280;38939;47.824;14.642;2023-02-28T01:33:28;97504.06;;;-0.90;69.06
39769;BME280;38939;47.824;14.642;2023-02-28T01:34:30;97511.75;;;-0.90;68.96
39769;BME280;38939;47.824;14.642;2023-02-28T01:35:32;97503.63;;;-0.95;69.39
39769;BME280;38939;47.824;14.642;2023-02-28T01:36:35;97508.16;;;-0.98;69.83
39769;BME280;38939;47.824;14.642;2023-02-28T01:37:37;97501.38;;;-0.99;69.73
39769;BME280;38939;47.824;14.642;2023-02-28T01:38:39;97503.22;;;-1.02;70.05
39769;BME280;38939;47.824;14.642;2023-02-28T01:39:42;97499.38;;;-1.07;70.26
39769;BME280;38939;47.824;14.642;2023-02-28T01:40:43;97493.66;;;-1.22;70.81
39769;BME280;38939;47.824;14.642;2023-02-28T01:41:45;97493.84;;;-1.36;71.13
39769;BME280;38939;47.824;14.642;2023-02-28T01:42:47;97498.47;;;-1.42;71.38
39769;BME280;38939;47.824;14.642;2023-02-28T01:45:59;97492.91;;;-1.47;72.70
39769;BME280;38939;47.824;14.642;2023-02-28T01:47:01;97491.50;;;-1.39;72.69
39769;BME280;38939;47.824;14.642;2023-02-28T01:48:04;97487.78;;;-1.35;72.34
39769;BME280;38939;47.824;14.642;2023-02-28T01:49:09;97492.34;;;-1.28;72.00
39769;BME280;38939;47.824;14.642;2023-02-28T01:50:16;97488.28;;;-1.30;71.91
39769;BME280;38939;47.824;14.642;2023-02-28T01:51:26;97484.66;;;-1.39;71.06
39769;BME280;38939;47.824;14.642;2023-02-28T01:52:30;97488.94;;;-1.39;71.19
39769;BME280;38939;47.824;14.642;2023-02-28T01:53:33;97488.50;;;-1.45;71.03
39769;BME280;38939;47.824;14.642;2023-02-28T01:54:36;97483.38;;;-1.45;71.25
39769;BME280;38939;47.824;14.642;2023-02-28T01:55:38;97484.28;;;-1.46;71.58
39769;BME280;38939;47.824;14.642;2023-02-28T01:56:43;97480.81;;;-1.45;71.38
39769;BME280;38939;47.824;14.642;2023-02-28T01:57:48;97480.56;;;-1.42;71.41
39769;BME280;38939;47.824;14.642;2023-02-28T01:58:50;97481.06;;;-1.36;71.25
39769;BME280;38939;47.824;14.642;2023-02-28T02:00:00;97484.22;;;-1.33;71.17
39769;BME280;38939;47.824;14.642;2023-02-28T02:01:05;97483.88;;;-1.28;71.04
39769;BME280;38939;47.824;14.642;2023-02-28T02:02:07;97476.69;;;-1.23;70.31
39769;BME280;38939;47.824;14.642;2023-02-28T02:03:10;97483.22;;;-1.19;70.54
39769;BME280;38939;47.824;14.642;2023-02-28T02:04:15;97475.28;;;-1.16;70.42
39769;BME280;38939;47.824;14.642;2023-02-28T02:05:19;97477.63;;;-1.13;70.03
39769;BME280;38939;47.824;14.642;2023-02-28T02:06:22;97476.94;;;-1.15;69.73
39769;BME280;38939;47.824;14.642;2023-02-28T02:07:25;97477.13;;;-1.18;69.91
39769;BME280;38939;47.824;14.642;2023-02-28T02:08:28;97474.59;;;-1.18;69.91
39769;BME280;38939;47.824;14.642;2023-02-28T02:09:30;97471.44;;;-1.22;69.72
39769;BME280;38939;47.824;14.642;2023-02-28T02:10:33;97472.25;;;-1.21;69.68
39769;BME280;38939;47.824;14.642;2023-02-28T02:11:36;97474.81;;;-1.21;69.45
39769;BME280;38939;47.824;14.642;2023-02-28T02:12:51;97466.31;;;-1.22;69.43
39769;BME280;38939;47.824;14.642;2023-02-28T02:15:05;97472.97;;;-1.19;69.20
39769;BME280;38939;47.824;14.642;2023-02-28T02:17:44;97468.03;;;-1.33;69.20
39769;BME280;38939;47.824;14.642;2023-02-28T02:18:48;97462.09;;;-1.34;69.42
39769;BME280;38939;47.824;14.642;2023-02-28T02:23:51;97460.94;;;-1.41;70.10
39769;BME280;38939;47.824;14.642;2023-02-28T02:26:23;97469.88;;;-1.47;69.78
39769;BME280;38939;47.824;14.642;2023-02-28T02:27:45;97466.38;;;-1.46;69.65
39769;BME280;38939;47.824;14.642;2023-02-28T02:39:18;97457.47;;;-1.99;68.37
39769;BME280;38939;47.824;14.642;2023-02-28T02:40:25;97458.38;;;-2.01;68.51
39769;BME280;38939;47.824;14.642;2023-02-28T02:41:48;97456.78;;;-2.02;68.77
39769;BME280;38939;47.824;14.642;2023-02-28T02:42:56;97451.16;;;-2.07;68.33
39769;BME280;38939;47.824;14.642;2023-02-28T02:44:04;97455.34;;;-2.06;68.63
39769;BME280;38939;47.824;14.642;2023-02-28T02:45:12;97454.25;;;-2.14;68.45
39769;BME280;38939;47.824;14.642;2023-02-28T02:46:20;97448.34;;;-2.15;68.67
39769;BME280;38939;47.824;14.642;2023-02-28T02:47:22;97451.50;;;-2.11;68.91
39769;BME280;38939;47.824;14.642;2023-02-28T02:48:26;97450.50;;;-2.22;69.56
39769;BME280;38939;47.824;14.642;2023-02-28T02:49:31;97451.41;;;-2.23;69.43
39769;BME280;38939;47.824;14.642;2023-02-28T02:50:36;97451.31;;;-2.21;69.89
39769;BME280;38939;47.824;14.642;2023-02-28T02:51:39;97448.34;;;-2.15;69.80
39769;BME280;38939;47.824;14.642;2023-02-28T02:52:43;97451.25;;;-2.08;69.41
39769;BME280;38939;47.824;14.642;2023-02-28T02:53:54;97446.75;;;-2.05;70.12
39769;BME280;38939;47.824;14.642;2023-02-28T02:54:58;97448.97;;;-2.00;69.64
39769;BME280;38939;47.824;14.642;2023-02-28T02:56:01;97448.16;;;-2.01;69.41
39769;BME280;38939;47.824;14.642;2023-02-28T02:57:05;97443.66;;;-1.97;70.10
39769;BME280;38939;47.824;14.642;2023-02-28T02:58:14;97453.88;;;-1.97;69.52
39769;BME280;38939;47.824;14.642;2023-02-28T02:59:18;97455.63;;;-1.97;69.54
39769;BME280;38939;47.824;14.642;2023-02-28T03:00:24;97456.44;;;-1.97;69.57
39769;BME280;38939;47.824;14.642;2023-02-28T03:01:28;97450.41;;;-1.96;69.08
39769;BME280;38939;47.824;14.642;2023-02-28T03:02:32;97453.78;;;-1.95;69.22
39769;BME280;38939;47.824;14.642;2023-02-28T03:03:35;97452.84;;;-1.94;68.97
39769;BME280;38939;47.824;14.642;2023-02-28T03:04:48;97447.97;;;-1.97;69.10
39769;BME280;38939;47.824;14.642;2023-02-28T03:05:52;97453.28;;;-2.01;68.77
39769;BME280;38939;47.824;14.642;2023-02-28T03:06:54;97446.31;;;-1.98;69.19
39769;BME280;38939;47.824;14.642;2023-02-28T03:07:56;97454.09;;;-2.00;69.14
39769;BME280;38939;47.824;14.642;2023-02-28T03:08:58;97448.06;;;-1.99;69.80
39769;BME280;38939;47.824;14.642;2023-02-28T03:10:01;97450.63;;;-1.99;69.12
39769;BME280;38939;47.824;14.642;2023-02-28T03:11:04;97453.88;;;-1.97;69.36
39769;BME280;38939;47.824;14.642;2023-02-28T03:12:08;97454.91;;;-1.99;69.11
39769;BME280;38939;47.824;14.642;2023-02-28T03:18:10;97455.13;;;-2.03;69.65
39769;BME280;38939;47.824;14.642;2023-02-28T03:19:39;97456.16;;;-2.05;69.46
39769;BME280;38939;47.824;14.642;2023-02-28T03:23:23;97452.97;;;-2.20;70.04
39769;BME280;38939;47.824;14.642;2023-02-28T03:24:32;97451.94;;;-2.17;69.68
39769;BME280;38939;47.824;14.642;2023-02-28T03:27:05;97452.72;;;-2.17;69.64
39769;BME280;38939;47.824;14.642;2023-02-28T03:29:15;97452.28;;;-2.11;69.64
39769;BME280;38939;47.824;14.642;2023-02-28T03:32:29;97440.38;;;-2.47;69.98
39769;BME280;38939;47.824;14.642;2023-02-28T03:33:36;97442.00;;;-2.46;70.61
39769;BME280;38939;47.824;14.642;2023-02-28T03:34:41;97442.81;;;-2.46;71.71
39769;BME280;38939;47.824;14.642;2023-02-28T03:35:51;97443.44;;;-2.55;71.08
39769;BME280;38939;47.824;14.642;2023-02-28T03:36:55;97437.34;;;-2.65;72.11
39769;BME280;38939;47.824;14.642;2023-02-28T03:38:10;97444.09;;;-2.77;72.53
39769;BME280;38939;47.824;14.642;2023-02-28T03:39:59;97443.81;;;-2.72;72.25
39769;BME280;38939;47.824;14.642;2023-02-28T03:40:41;97448.28;;;-2.63;73.03
39769;BME280;38939;47.824;14.642;2023-02-28T03:41:48;97444.31;;;-2.67;72.77
39769;BME280;38939;47.824;14.642;2023-02-28T03:42:53;97445.81;;;-2.65;72.71
39769;BME280;38939;47.824;14.642;2023-02-28T03:43:58;97443.88;;;-2.61;73.22
39769;BME280;38939;47.824;14.642;2023-02-28T03:45:04;97435.13;;;-2.70;73.09
39769;BME280;38939;47.824;14.642;2023-02-28T03:46:09;97445.53;;;-2.73;73.16
39769;BME280;38939;47.824;14.642;2023-02-28T03:48:23;97454.13;;;-2.74;73.22
39769;BME280;38939;47.824;14.642;2023-02-28T03:49:30;97443.38;;;-2.66;72.82
39769;BME280;38939;47.824;14.642;2023-02-28T03:50:37;97443.25;;;-2.65;72.84
39769;BME280;38939;47.824;14.642;2023-02-28T03:51:40;97442.16;;;-2.73;73.23
39769;BME280;38939;47.824;14.642;2023-02-28T03:52:45;97441.69;;;-2.78;72.81
39769;BME280;38939;47.824;14.642;2023-02-28T03:53:58;97444.81;;;-2.75;73.49
39769;BME280;38939;47.824;14.642;2023-02-28T03:55:04;97442.47;;;-2.65;73.73
39769;BME280;38939;47.824;14.642;2023-02-28T03:59:51;97437.97;;;-2.62;72.52
39769;BME280;38939;47.824;14.642;2023-02-28T04:00:59;97436.53;;;-2.66;72.79
39769;BME280;38939;47.824;14.642;2023-02-28T04:02:09;97444.22;;;-2.78;73.41
39769;BME280;38939;47.824;14.642;2023-02-28T04:03:11;97441.50;;;-2.88;73.39
39769;BME280;38939;47.824;14.642;2023-02-28T04:04:13;97441.06;;;-2.82;73.92
39769;BME280;38939;47.824;14.642;2023-02-28T04:05:15;97439.00;;;-2.77;73.80
39769;BME280;38939;47.824;14.642;2023-02-28T04:06:19;97443.31;;;-2.77;73.89
39769;BME280;38939;47.824;14.642;2023-02-28T04:07:21;97445.84;;;-2.77;74.03
39769;BME280;38939;47.824;14.642;2023-02-28T04:08:23;97440.13;;;-2.81;74.21
39769;BME280;38939;47.824;14.642;2023-02-28T04:09:25;97441.69;;;-2.78;74.02
39769;BME280;38939;47.824;14.642;2023-02-28T04:10:26;97438.81;;;-2.74;73.73
39769;BME280;38939;47.824;14.642;2023-02-28T04:12:33;97434.69;;;-2.64;73.77
39769;BME280;38939;47.824;14.642;2023-02-28T04:13:34;97436.91;;;-2.59;73.48
39769;BME280;38939;47.824;14.642;2023-02-28T04:14:36;97444.72;;;-2.60;73.14
39769;BME280;38939;47.824;14.642;2023-02-28T04:15:38;97431.81;;;-2.59;73.12
39769;BME280;38939;47.824;14.642;2023-02-28T04:16:41;97444.72;;;-2.60;72.80
39769;BME280;38939;47.824;14.642;2023-02-28T04:17:43;97435.78;;;-2.55;73.00
39769;BME280;38939;47.824;14.642;2023-02-28T04:18:45;97444.88;;;-2.51;72.31
39769;BME280;38939;47.824;14.642;2023-02-28T04:19:46;97439.56;;;-2.48;72.25
39769;BME280;38939;47.824;14.642;2023-02-28T04:20:48;97440.28;;;-2.46;72.60
39769;BME280;38939;47.824;14.642;2023-02-28T04:21:51;97432.00;;;-2.49;72.28
39769;BME280;38939;47.824;14.642;2023-02-28T04:22:53;97432.13;;;-2.64;72.48
39769;BME280;38939;47.824;14.642;2023-02-28T04:23:55;97432.75;;;-2.73;72.79
39769;BME280;38939;47.824;14.642;2023-02-28T04:24:57;97441.97;;;-2.70;72.98
39769;BME280;38939;47.824;14.642;2023-02-28T04:25:59;97434.09;;;-2.67;73.40
39769;BME280;38939;47.824;14.642;2023-02-28T04:27:01;97437.25;;;-2.64;72.73
39769;BME280;38939;47.824;14.642;2023-02-28T04:28:04;97440.31;;;-2.71;72.86
39769;BME280;38939;47.824;14.642;2023-02-28T04:29:06;97434.03;;;-2.78;73.02
39769;BME280;38939;47.824;14.642;2023-02-28T04:30:09;97429.91;;;-2.81;73.18
39769;BME280;38939;47.824;14.642;2023-02-28T04:31:11;97436.78;;;-2.82;73.89
39769;BME280;38939;47.824;14.642;2023-02-28T04:32:13;97436.47;;;-2.90;74.00
39769;BME280;38939;47.824;14.642;2023-02-28T04:33:15;97434.97;;;-2.92;73.88
39769;BME280;38939;47.824;14.642;2023-02-28T04:34:17;97436.00;;;-2.95;73.95
39769;BME280;38939;47.824;14.642;2023-02-28T04:35:20;97439.06;;;-3.03;74.09
39769;BME280;38939;47.824;14.642;2023-02-28T04:36:22;97432.72;;;-3.10;74.58
39769;BME280;38939;47.824;14.642;2023-02-28T04:37:24;97437.75;;;-3.21;75.10
39769;BME280;38939;47.824;14.642;2023-02-28T04:38:37;97437.03;;;-3.23;75.11
39769;BME280;38939;47.824;14.642;2023-02-28T04:39:39;97429.47;;;-3.25;75.42
39769;BME280;38939;47.824;14.642;2023-02-28T04:40:41;97438.84;;;-3.38;75.85
39769;BME280;38939;47.824;14.642;2023-02-28T04:41:44;97434.78;;;-3.40;76.04
39769;BME280;38939;47.824;14.642;2023-02-28T04:42:47;97431.41;;;-3.41;76.54
39769;BME280;38939;47.824;14.642;2023-02-28T04:43:49;97427.94;;;-3.53;77.28
39769;BME280;38939;47.824;14.642;2023-02-28T04:44:52;97431.28;;;-3.65;78.25
39769;BME280;38939;47.824;14.642;2023-02-28T04:45:54;97432.09;;;-3.65;78.65
39769;BME280;38939;47.824;14.642;2023-02-28T04:46:58;97435.34;;;-3.63;79.10
39769;BME280;38939;47.824;14.642;2023-02-28T04:48:00;97434.88;;;-3.55;78.47
39769;BME280;38939;47.824;14.642;2023-02-28T04:49:01;97431.19;;;-3.51;79.29
39769;BME280;38939;47.824;14.642;2023-02-28T04:50:04;97430.69;;;-3.43;78.40
39769;BME280;38939;47.824;14.642;2023-02-28T04:51:08;97437.91;;;-3.50;78.85
39769;BME280;38939;47.824;14.642;2023-02-28T04:52:10;97436.59;;;-3.55;78.96
39769;BME280;38939;47.824;14.642;2023-02-28T04:53:12;97427.13;;;-3.53;79.68
39769;BME280;38939;47.824;14.642;2023-02-28T04:54:13;97428.03;;;-3.54;79.89
39769;BME280;38939;47.824;14.642;2023-02-28T04:55:17;97432.50;;;-3.58;79.24
39769;BME280;38939;47.824;14.642;2023-02-28T04:56:19;97432.00;;;-3.63;80.11
39769;BME280;38939;47.824;14.642;2023-02-28T04:57:21;97431.16;;;-3.64;79.51
39769;BME280;38939;47.824;14.642;2023-02-28T04:58:23;97427.41;;;-3.71;79.49
39769;BME280;38939;47.824;14.642;2023-02-28T04:59:25;97426.78;;;-3.74;80.09
39769;BME280;38939;47.824;14.642;2023-02-28T05:00:26;97425.97;;;-3.75;80.72
39769;BME280;38939;47.824;14.642;2023-02-28T05:01:29;97425.47;;;-3.67;80.37
39769;BME280;38939;47.824;14.642;2023-02-28T05:02:34;97420.06;;;-3.63;80.04
39769;BME280;38939;47.824;14.642;2023-02-28T05:03:36;97425.78;;;-3.59;79.82
39769;BME280;38939;47.824;14.642;2023-02-28T05:04:37;97423.72;;;-3.54;79.64
39769;BME280;38939;47.824;14.642;2023-02-28T05:05:39;97425.16;;;-3.50;79.98
39769;BME280;38939;47.824;14.642;2023-02-28T05:06:41;97426.41;;;-3.43;79.40
39769;BME280;38939;47.824;14.642;2023-02-28T05:07:43;97423.00;;;-3.56;79.89
39769;BME280;38939;47.824;14.642;2023-02-28T05:08:45;97425.06;;;-3.61;79.56
39769;BME280;38939;47.824;14.642;2023-02-28T05:09:47;97426.50;;;-3.57;80.19
39769;BME280;38939;47.824;14.642;2023-02-28T05:10:49;97428.84;;;-3.54;80.50
39769;BME280;38939;47.824;14.642;2023-02-28T05:11:51;97429.03;;;-3.57;80.47
39769;BME280;38939;47.824;14.642;2023-02-28T05:12:53;97433.00;;;-3.66;80.39
39769;BME280;38939;47.824;14.642;2023-02-28T05:13:55;97432.88;;;-3.77;80.86
39769;BME280;38939;47.824;14.642;2023-02-28T05:14:57;97429.13;;;-3.71;80.73
39769;BME280;38939;47.824;14.642;2023-02-28T05:15:59;97430.16;;;-3.61;81.22
39769;BME280;38939;47.824;14.642;2023-02-28T05:17:01;97432.63;;;-3.59;80.33
39769;BME280;38939;47.824;14.642;2023-02-28T05:18:02;97426.19;;;-3.52;80.38
39769;BME280;38939;47.824;14.642;2023-02-28T05:19:04;97435.75;;;-3.56;80.61
39769;BME280;38939;47.824;14.642;2023-02-28T05:20:07;97434.34;;;-3.60;80.29
39769;BME280;38939;47.824;14.642;2023-02-28T05:22:20;97426.00;;;-3.49;79.97
39769;BME280;38939;47.824;14.642;2023-02-28T05:23:22;97438.53;;;-3.46;80.28
39769;BME280;38939;47.824;14.642;2023-02-28T05:24:24;97439.88;;;-3.40;79.93
39769;BME280;38939;47.824;14.642;2023-02-28T05:25:26;97448.03;;;-3.35;79.97
39769;BME280;38939;47.824;14.642;2023-02-28T05:26:28;97428.03;;;-3.29;79.18
39769;BME280;38939;47.824;14.642;2023-02-28T05:27:31;97436.09;;;-3.22;79.24
39769;BME280;38939;47.824;14.642;2023-02-28T05:28:33;97443.34;;;-3.16;79.06
39769;BME280;38939;47.824;14.642;2023-02-28T05:29:35;97438.03;;;-3.13;79.18
39769;BME280;38939;47.824;14.642;2023-02-28T05:30:43;97438.63;;;-3.09;78.58
39769;BME280;38939;47.824;14.642;2023-02-28T05:31:44;97439.03;;;-3.15;78.89
39769;BME280;38939;47.824;14.642;2023-02-28T05:32:49;97439.88;;;-3.15;78.78
39769;BME280;38939;47.824;14.642;2023-02-28T05:33:51;97444.56;;;-3.09;78.69
39769;BME280;38939;47.824;14.642;2023-02-28T05:34:53;97443.53;;;-3.06;78.61
39769;BME280;38939;47.824;14.642;2023-02-28T05:35:55;97441.91;;;-3.07;77.82
39769;BME280;38939;47.824;14.642;2023-02-28T05:36:57;97442.72;;;-3.07;78.24
39769;BME280;38939;47.824;14.642;2023-02-28T05:37:59;97442.72;;;-3.07;77.59
39769;BME280;38939;47.824;14.642;2023-02-28T05:39:00;97437.22;;;-3.13;77.43
39769;BME280;38939;47.824;14.642;2023-02-28T05:40:03;97444.88;;;-3.13;77.58
39769;BME280;38939;47.824;14.642;2023-02-28T05:41:08;97443.44;;;-3.17;77.29
39769;BME280;38939;47.824;14.642;2023-02-28T05:42:10;97443.44;;;-3.30;78.20
39769;BME280;38939;47.824;14.642;2023-02-28T05:43:12;97447.84;;;-3.32;77.63
39769;BME280;38939;47.824;14.642;2023-02-28T05:44:14;97443.53;;;-3.32;77.90
39769;BME280;38939;47.824;14.642;2023-02-28T05:45:17;97445.88;;;-3.42;78.14
39769;BME280;38939;47.824;14.642;2023-02-28T05:46:19;97442.03;;;-3.47;79.09
39769;BME280;38939;47.824;14.642;2023-02-28T05:47:20;97446.91;;;-3.44;79.03
39769;BME280;38939;47.824;14.642;2023-02-28T05:48:22;97452.22;;;-3.34;79.30
39769;BME280;38939;47.824;14.642;2023-02-28T05:49:24;97449.25;;;-3.28;78.26
39769;BME280;38939;47.824;14.642;2023-02-28T05:50:26;97450.78;;;-3.26;78.42
39769;BME280;38939;47.824;14.642;2023-02-28T05:51:28;97450.91;;;-3.27;78.54
39769;BME280;38939;47.824;14.642;2023-02-28T05:52:31;97448.84;;;-3.22;78.73
39769;BME280;38939;47.824;14.642;2023-02-28T05:53:33;97448.53;;;-3.17;77.92
39769;BME280;38939;47.824;14.642;2023-02-28T05:54:35;97449.06;;;-3.12;77.77
39769;BME280;38939;47.824;14.642;2023-02-28T05:55:37;97449.38;;;-3.04;78.30
39769;BME280;38939;47.824;14.642;2023-02-28T05:56:39;97447.53;;;-3.02;77.41
39769;BME280;38939;47.824;14.642;2023-02-28T05:57:42;97449.75;;;-2.97;77.70
39769;BME280;38939;47.824;14.642;2023-02-28T05:58:44;97445.38;;;-2.95;77.51
39769;BME280;38939;47.824;14.642;2023-02-28T05:59:45;97441.09;;;-2.95;77.41
39769;BME280;38939;47.824;14.642;2023-02-28T06:00:47;97453.72;;;-2.93;77.21
39769;BME280;38939;47.824;14.642;2023-02-28T06:01:49;97448.44;;;-2.90;76.96
39769;BME280;38939;47.824;14.642;2023-02-28T06:02:51;97452.72;;;-2.91;76.45
39769;BME280;38939;47.824;14.642;2023-02-28T06:04:00;97453.25;;;-2.98;76.33
39769;BME280;38939;47.824;14.642;2023-02-28T06:05:02;97451.91;;;-3.04;76.65
39769;BME280;38939;47.824;14.642;2023-02-28T06:06:04;97451.69;;;-3.01;76.84
39769;BME280;38939;47.824;14.642;2023-02-28T06:07:06;97452.00;;;-3.06;76.57
39769;BME280;38939;47.824;14.642;2023-02-28T06:08:08;97449.47;;;-3.06;76.80
39769;BME280;38939;47.824;14.642;2023-02-28T06:09:10;97457.22;;;-3.07;76.72
39769;BME280;38939;47.824;14.642;2023-02-28T06:10:13;97450.97;;;-3.03;76.67
39769;BME280;38939;47.824;14.642;2023-02-28T06:11:15;97449.66;;;-2.96;76.71